createdAt,value
2024-04-22T00:00:18.594Z,104.83
2024-04-22T00:01:20.148Z,103.67
2024-04-22T00:02:21.861Z,99.83
2024-04-22T00:03:23.339Z,105.50
2024-04-22T00:04:24.811Z,109.00
2024-04-22T00:05:26.303Z,113.00
2024-04-22T00:06:27.844Z,114.83
2024-04-22T00:07:29.358Z,112.00
2024-04-22T00:08:30.859Z,109.67
2024-04-22T00:09:32.317Z,110.17
2024-04-22T00:10:33.785Z,112.83
2024-04-22T00:11:35.479Z,117.50
2024-04-22T00:12:36.975Z,124.83
2024-04-22T00:13:38.542Z,128.17
2024-04-22T00:14:40.030Z,126.83
2024-04-22T00:15:41.483Z,125.17
2024-04-22T00:16:43.035Z,124.33
2024-04-22T00:17:44.694Z,123.17
2024-04-22T00:18:46.639Z,123.83
2024-04-22T00:19:49.252Z,129.17
2024-04-22T00:20:50.708Z,137.83
2024-04-22T00:21:52.182Z,147.00
2024-04-22T00:22:53.669Z,155.67
2024-04-22T00:23:55.144Z,159.17
2024-04-22T00:24:58.043Z,151.17
2024-04-22T00:26:00.747Z,147.17
2024-04-22T00:27:02.242Z,143.00
2024-04-22T00:28:04.007Z,135.50
2024-04-22T00:29:05.456Z,133.00
2024-04-22T00:30:07.543Z,133.00
2024-04-22T00:31:09.051Z,133.67
2024-04-22T00:32:10.557Z,134.00
2024-04-22T00:33:12.178Z,134.83
2024-04-22T00:34:13.678Z,135.00
2024-04-22T00:35:16.336Z,135.00
2024-04-22T00:36:17.896Z,137.17
2024-04-22T00:37:19.954Z,144.83
2024-04-22T00:38:21.453Z,152.17
2024-04-22T00:39:22.902Z,151.50
2024-04-22T00:40:24.372Z,151.33
2024-04-22T00:41:27.818Z,151.50
2024-04-22T00:42:29.282Z,151.00
2024-04-22T00:43:30.789Z,147.17
2024-04-22T00:44:32.255Z,142.17
2024-04-22T00:45:33.994Z,140.17
2024-04-22T00:46:35.571Z,140.83
2024-04-22T00:47:37.493Z,140.33
2024-04-22T00:48:39.223Z,132.00
2024-04-22T00:49:40.746Z,115.33
2024-04-22T00:50:43.184Z,106.33
2024-04-22T00:51:44.686Z,100.33
2024-04-22T00:52:46.384Z,97.00
2024-04-22T00:53:48.008Z,96.67
2024-04-22T00:54:49.455Z,96.33
2024-04-22T00:55:51.923Z,94.00
2024-04-22T00:56:53.755Z,91.00
2024-04-22T00:58:03.014Z,90.17
2024-04-22T00:59:05.618Z,89.67
2024-04-22T01:00:07.577Z,89.83
2024-04-22T01:01:10.418Z,89.33
2024-04-22T01:02:11.957Z,89.17
2024-04-22T01:03:15.643Z,91.00
2024-04-22T01:04:17.361Z,93.17
2024-04-22T01:05:18.889Z,95.83
2024-04-22T01:06:20.368Z,99.67
2024-04-22T01:07:22.457Z,99.50
2024-04-22T01:08:24.142Z,96.83
2024-04-22T01:09:25.613Z,95.67
2024-04-22T01:10:27.681Z,96.83
2024-04-22T01:11:29.431Z,99.67
2024-04-22T01:12:31.647Z,107.17
2024-04-22T01:13:33.151Z,121.17
2024-04-22T01:14:34.652Z,130.00
2024-04-22T01:15:36.096Z,147.00
2024-04-22T01:16:37.745Z,154.33
2024-04-22T01:17:40.850Z,154.50
2024-04-22T01:18:42.751Z,152.67
2024-04-22T01:19:44.320Z,150.67
2024-04-22T01:20:46.052Z,151.00
2024-04-22T01:21:51.503Z,151.00
2024-04-22T01:22:52.950Z,152.17
2024-04-22T01:23:55.892Z,161.33
2024-04-22T01:24:57.573Z,168.50
2024-04-22T01:26:00.068Z,169.50
2024-04-22T01:27:04.086Z,176.50
2024-04-22T01:28:05.683Z,181.83
2024-04-22T01:29:07.134Z,187.50
2024-04-22T01:30:09.493Z,198.17
2024-04-22T01:31:11.063Z,206.17
2024-04-22T01:32:12.587Z,209.00
2024-04-22T01:33:14.075Z,201.17
2024-04-22T01:34:15.598Z,199.17
2024-04-22T01:35:17.059Z,198.67
2024-04-22T01:36:18.526Z,199.83
2024-04-22T01:37:19.990Z,203.17
2024-04-22T01:38:21.432Z,205.67
2024-04-22T01:39:22.924Z,205.50
2024-04-22T01:40:24.412Z,207.17
2024-04-22T01:41:25.850Z,204.83
2024-04-22T01:42:27.310Z,203.50
2024-04-22T01:43:28.837Z,202.00
2024-04-22T01:44:30.305Z,201.00
2024-04-22T01:45:31.792Z,200.17
2024-04-22T01:46:33.392Z,200.50
2024-04-22T01:47:35.129Z,202.67
2024-04-22T01:48:37.104Z,205.00
2024-04-22T01:49:38.579Z,206.00
2024-04-22T01:50:40.068Z,206.33
2024-04-22T01:51:41.527Z,206.00
2024-04-22T01:52:43.152Z,206.00
2024-04-22T01:53:44.621Z,206.33
2024-04-22T01:54:46.148Z,205.67
2024-04-22T01:55:47.682Z,205.00
2024-04-22T01:56:49.745Z,205.17
2024-04-22T01:57:51.273Z,205.00
2024-04-22T01:58:53.874Z,203.83
2024-04-22T01:59:55.347Z,196.17
2024-04-22T02:01:03.508Z,192.00
2024-04-22T02:02:05.094Z,188.83
2024-04-22T02:03:06.560Z,186.67
2024-04-22T02:04:08.499Z,185.67
2024-04-22T02:05:09.947Z,187.00
2024-04-22T02:06:11.419Z,187.83
2024-04-22T02:07:12.875Z,190.00
2024-04-22T02:08:14.331Z,198.00
2024-04-22T02:09:15.778Z,211.33
2024-04-22T02:10:23.123Z,224.33
2024-04-22T02:11:25.974Z,232.50
2024-04-22T02:12:27.446Z,236.83
2024-04-22T02:13:28.945Z,238.83
2024-04-22T02:14:30.705Z,240.67
2024-04-22T02:15:32.161Z,238.83
2024-04-22T02:16:33.647Z,238.50
2024-04-22T02:17:35.399Z,236.50
2024-04-22T02:18:36.878Z,233.50
2024-04-22T02:19:38.395Z,232.83
2024-04-22T02:20:39.850Z,231.67
2024-04-22T02:21:41.330Z,230.33
2024-04-22T02:22:42.872Z,228.50
2024-04-22T02:23:44.374Z,227.67
2024-04-22T02:24:45.823Z,226.00
2024-04-22T02:25:47.314Z,224.33
2024-04-22T02:26:49.059Z,223.83
2024-04-22T02:27:51.524Z,223.00
2024-04-22T02:28:53.590Z,223.83
2024-04-22T02:29:55.054Z,229.00
2024-04-22T02:30:56.510Z,233.83
2024-04-22T02:31:57.986Z,242.50
2024-04-22T02:32:59.877Z,242.33
2024-04-22T02:34:01.359Z,240.33
2024-04-22T02:35:02.867Z,237.83
2024-04-22T02:36:04.542Z,228.33
2024-04-22T02:37:06.044Z,215.33
2024-04-22T02:38:07.489Z,207.67
2024-04-22T02:39:08.946Z,203.50
2024-04-22T02:40:10.503Z,204.50
2024-04-22T02:41:11.979Z,205.50
2024-04-22T02:42:13.447Z,205.33
2024-04-22T02:43:14.900Z,206.00
2024-04-22T02:44:16.395Z,207.00
2024-04-22T02:45:17.867Z,207.00
2024-04-22T02:46:19.354Z,204.33
2024-04-22T02:47:20.860Z,202.33
2024-04-22T02:48:22.329Z,203.67
2024-04-22T02:49:23.847Z,204.50
2024-04-22T02:50:25.288Z,208.50
2024-04-22T02:51:26.739Z,226.83
2024-04-22T02:52:28.268Z,234.00
2024-04-22T02:53:29.836Z,229.83
2024-04-22T02:54:31.774Z,227.33
2024-04-22T02:55:33.237Z,223.33
2024-04-22T02:56:34.694Z,215.67
2024-04-22T02:57:36.234Z,209.67
2024-04-22T02:58:39.268Z,206.00
2024-04-22T02:59:43.048Z,203.00
2024-04-22T03:00:49.083Z,200.33
2024-04-22T03:01:50.623Z,200.17
2024-04-22T03:02:52.300Z,201.33
2024-04-22T03:03:53.888Z,202.83
2024-04-22T03:04:55.446Z,203.83
2024-04-22T03:05:57.452Z,204.33
2024-04-22T03:07:01.084Z,207.67
2024-04-22T03:08:02.633Z,214.67
2024-04-22T03:09:04.103Z,221.67
2024-04-22T03:10:05.927Z,223.50
2024-04-22T03:11:07.435Z,222.50
2024-04-22T03:12:12.909Z,221.33
2024-04-22T03:13:14.408Z,220.33
2024-04-22T03:14:15.920Z,218.67
2024-04-22T03:15:17.396Z,218.00
2024-04-22T03:16:19.003Z,218.00
2024-04-22T03:17:20.490Z,218.17
2024-04-22T03:18:21.991Z,219.00
2024-04-22T03:19:23.462Z,219.67
2024-04-22T03:20:25.152Z,225.17
2024-04-22T03:21:26.621Z,235.00
2024-04-22T03:22:28.078Z,241.50
2024-04-22T03:23:29.561Z,246.83
2024-04-22T03:24:31.032Z,249.67
2024-04-22T03:25:32.522Z,253.83
2024-04-22T03:26:33.980Z,255.00
2024-04-22T03:27:35.452Z,256.67
2024-04-22T03:28:40.148Z,256.67
2024-04-22T03:29:41.719Z,256.17
2024-04-22T03:30:43.173Z,254.67
2024-04-22T03:31:44.771Z,253.17
2024-04-22T03:32:46.283Z,251.83
2024-04-22T03:33:47.761Z,251.00
2024-04-22T03:34:49.236Z,250.67
2024-04-22T03:35:50.707Z,253.50
2024-04-22T03:36:52.169Z,263.33
2024-04-22T03:37:53.623Z,262.67
2024-04-22T03:38:56.611Z,260.33
2024-04-22T03:39:58.189Z,259.33
2024-04-22T03:40:59.668Z,258.00
2024-04-22T03:42:01.556Z,257.17
2024-04-22T03:43:03.066Z,256.00
2024-04-22T03:44:04.531Z,254.17
2024-04-22T03:45:06.025Z,253.33
2024-04-22T03:46:26.175Z,253.00
2024-04-22T03:47:46.453Z,253.00
2024-04-22T03:49:06.832Z,253.50
2024-04-22T03:50:08.304Z,253.67
2024-04-22T03:51:09.788Z,253.00
2024-04-22T03:52:11.274Z,253.00
2024-04-22T03:53:12.749Z,252.50
2024-04-22T03:54:14.225Z,252.33
2024-04-22T03:55:15.709Z,252.00
2024-04-22T03:56:17.186Z,251.17
2024-04-22T03:57:18.649Z,249.67
2024-04-22T03:58:20.143Z,247.83
2024-04-22T03:59:21.640Z,246.00
2024-04-22T04:00:23.119Z,246.00
2024-04-22T04:01:24.593Z,246.00
2024-04-22T04:02:27.068Z,246.00
2024-04-22T04:03:28.575Z,246.00
2024-04-22T04:04:30.273Z,246.50
2024-04-22T04:05:32.036Z,247.00
2024-04-22T04:06:33.639Z,247.50
2024-04-22T04:07:35.122Z,248.83
2024-04-22T04:08:36.590Z,249.50
2024-04-22T04:09:40.411Z,250.17
2024-04-22T04:10:42.507Z,251.50
2024-04-22T04:11:43.993Z,252.00
2024-04-22T04:12:45.483Z,252.67
2024-04-22T04:13:47.057Z,253.00
2024-04-22T04:14:48.629Z,253.00
2024-04-22T04:15:50.070Z,252.17
2024-04-22T04:16:51.603Z,252.00
2024-04-22T04:17:55.926Z,252.00
2024-04-22T04:18:57.736Z,252.00
2024-04-22T04:19:59.225Z,251.33
2024-04-22T04:21:00.686Z,251.00
2024-04-22T04:22:02.161Z,251.00
2024-04-22T04:23:06.462Z,251.00
2024-04-22T04:24:08.578Z,250.17
2024-04-22T04:25:10.103Z,249.00
2024-04-22T04:26:11.587Z,249.00
2024-04-22T04:27:15.775Z,249.67
2024-04-22T04:28:17.279Z,249.00
2024-04-22T04:29:18.771Z,248.00
2024-04-22T04:30:20.311Z,246.17
2024-04-22T04:31:21.920Z,244.67
2024-04-22T04:32:23.929Z,243.67
2024-04-22T04:33:25.652Z,242.50
2024-04-22T04:34:27.212Z,241.17
2024-04-22T04:35:28.725Z,238.50
2024-04-22T04:36:30.171Z,238.00
2024-04-22T04:37:31.664Z,237.83
2024-04-22T04:38:34.346Z,237.00
2024-04-22T04:39:35.876Z,235.33
2024-04-22T04:40:37.468Z,234.50
2024-04-22T04:41:38.922Z,235.00
2024-04-22T04:42:40.391Z,235.00
2024-04-22T04:43:41.925Z,233.83
2024-04-22T04:44:43.446Z,231.00
2024-04-22T04:45:44.953Z,229.67
2024-04-22T04:46:46.445Z,228.83
2024-04-22T04:47:49.518Z,227.83
2024-04-22T04:48:53.748Z,227.50
2024-04-22T04:49:55.420Z,228.00
2024-04-22T04:50:56.915Z,228.67
2024-04-22T04:51:58.363Z,229.33
2024-04-22T04:52:59.862Z,230.17
2024-04-22T04:54:01.355Z,230.50
2024-04-22T04:55:02.876Z,230.00
2024-04-22T04:56:04.582Z,229.00
2024-04-22T04:57:06.032Z,225.50
2024-04-22T04:58:07.838Z,222.50
2024-04-22T04:59:09.334Z,222.33
2024-04-22T05:00:11.048Z,223.00
2024-04-22T05:01:14.937Z,222.00
2024-04-22T05:02:17.696Z,221.33
2024-04-22T05:03:19.399Z,222.00
2024-04-22T05:04:21.068Z,223.00
2024-04-22T05:05:22.573Z,225.33
2024-04-22T05:06:24.465Z,226.33
2024-04-22T05:07:26.045Z,227.00
2024-04-22T05:08:28.109Z,227.83
2024-04-22T05:09:29.642Z,228.67
2024-04-22T05:10:31.166Z,229.00
2024-04-22T05:11:33.785Z,229.17
2024-04-22T05:12:35.266Z,230.67
2024-04-22T05:13:36.735Z,234.83
2024-04-22T05:14:38.209Z,239.83
2024-04-22T05:15:39.689Z,240.17
2024-04-22T05:16:42.833Z,240.00
2024-04-22T05:17:44.639Z,240.00
2024-04-22T05:18:46.224Z,240.00
2024-04-22T05:19:47.782Z,238.50
2024-04-22T05:20:50.165Z,234.00
2024-04-22T05:21:51.660Z,229.17
2024-04-22T05:22:53.100Z,227.67
2024-04-22T05:24:10.204Z,228.00
2024-04-22T05:25:11.667Z,228.00
2024-04-22T05:26:13.634Z,227.67
2024-04-22T05:27:15.124Z,226.50
2024-04-22T05:28:16.637Z,226.17
2024-04-22T05:29:18.392Z,227.67
2024-04-22T05:30:19.866Z,230.50
2024-04-22T05:31:21.367Z,233.17
2024-04-22T05:32:22.964Z,235.67
2024-04-22T05:33:43.218Z,236.00
2024-04-22T05:35:03.496Z,236.17
2024-04-22T05:36:14.890Z,235.00
2024-04-22T05:37:20.002Z,232.50
2024-04-22T05:38:21.485Z,232.17
2024-04-22T05:39:22.956Z,234.00
2024-04-22T05:40:24.466Z,236.50
2024-04-22T05:41:25.935Z,240.17
2024-04-22T05:42:27.420Z,244.00
2024-04-22T05:43:28.932Z,244.00
2024-04-22T05:44:30.487Z,242.50
2024-04-22T05:45:32.860Z,241.33
2024-04-22T05:46:34.414Z,241.00
2024-04-22T05:47:36.138Z,241.00
2024-04-22T05:48:37.872Z,241.17
2024-04-22T05:49:39.433Z,241.83
2024-04-22T05:50:40.967Z,241.83
2024-04-22T05:51:42.563Z,244.67
2024-04-22T05:52:44.084Z,249.67
2024-04-22T05:53:45.609Z,251.33
2024-04-22T05:54:47.073Z,254.50
2024-04-22T05:55:48.577Z,260.00
2024-04-22T05:56:50.078Z,264.17
2024-04-22T05:57:51.555Z,266.17
2024-04-22T05:58:53.091Z,266.83
2024-04-22T05:59:55.093Z,266.17
2024-04-22T06:00:57.511Z,265.17
2024-04-22T06:01:59.087Z,263.83
2024-04-22T06:03:00.579Z,261.50
2024-04-22T06:04:04.615Z,257.83
2024-04-22T06:05:06.498Z,253.50
2024-04-22T06:06:07.965Z,246.83
2024-04-22T06:07:09.531Z,240.83
2024-04-22T06:08:11.120Z,236.50
2024-04-22T06:09:12.715Z,228.00
2024-04-22T06:10:16.461Z,220.00
2024-04-22T06:11:17.973Z,214.67
2024-04-22T06:12:20.324Z,204.33
2024-04-22T06:13:22.010Z,188.50
2024-04-22T06:14:23.540Z,172.33
2024-04-22T06:15:25.010Z,166.17
2024-04-22T06:16:27.726Z,162.33
2024-04-22T06:17:29.739Z,169.17
2024-04-22T06:18:31.787Z,179.33
2024-04-22T06:19:33.379Z,187.17
2024-04-22T06:20:34.853Z,190.33
2024-04-22T06:21:36.325Z,191.83
2024-04-22T06:22:38.362Z,193.50
2024-04-22T06:23:39.844Z,195.17
2024-04-22T06:24:41.340Z,197.17
2024-04-22T06:25:42.892Z,199.17
2024-04-22T06:26:44.425Z,203.00
2024-04-22T06:27:48.175Z,206.50
2024-04-22T06:28:50.126Z,208.50
2024-04-22T06:29:51.659Z,211.17
2024-04-22T06:30:53.111Z,211.67
2024-04-22T06:31:54.663Z,211.00
2024-04-22T06:32:56.293Z,209.83
2024-04-22T06:33:57.826Z,202.50
2024-04-22T06:34:59.352Z,189.00
2024-04-22T06:36:00.831Z,183.00
2024-04-22T06:37:02.274Z,178.17
2024-04-22T06:38:06.172Z,178.00
2024-04-22T06:39:09.029Z,171.67
2024-04-22T06:40:10.554Z,168.83
2024-04-22T06:41:12.014Z,163.83
2024-04-22T06:42:13.539Z,157.17
2024-04-22T06:43:17.141Z,144.67
2024-04-22T06:44:18.611Z,128.00
2024-04-22T06:45:20.142Z,119.67
2024-04-22T06:46:21.981Z,116.67
2024-04-22T06:47:23.521Z,113.00
2024-04-22T06:48:25.084Z,107.33
2024-04-22T06:49:29.868Z,105.33
2024-04-22T06:50:31.888Z,108.17
2024-04-22T06:51:33.335Z,109.00
2024-04-22T06:52:34.928Z,108.33
2024-04-22T06:53:36.560Z,105.33
2024-04-22T06:54:38.014Z,103.00
2024-04-22T06:55:41.274Z,98.83
2024-04-22T06:56:45.661Z,98.17
2024-04-22T06:57:47.555Z,104.00
2024-04-22T06:58:49.064Z,106.50
2024-04-22T06:59:53.016Z,106.17
2024-04-22T07:00:54.595Z,107.83
2024-04-22T07:01:56.058Z,116.67
2024-04-22T07:02:57.626Z,141.00
2024-04-22T07:03:59.498Z,173.67
2024-04-22T07:05:01.185Z,204.00
2024-04-22T07:06:02.977Z,200.50
2024-04-22T07:07:04.687Z,191.67
2024-04-22T07:08:06.480Z,198.67
2024-04-22T07:09:13.163Z,205.50
2024-04-22T07:10:14.925Z,208.50
2024-04-22T07:11:16.666Z,204.67
2024-04-22T07:12:18.159Z,202.50
2024-04-22T07:13:19.662Z,198.17
2024-04-22T07:14:22.317Z,194.83
2024-04-22T07:15:27.680Z,195.00
2024-04-22T07:17:04.439Z,192.83
2024-04-22T07:18:05.917Z,191.00
2024-04-22T07:19:07.435Z,191.17
2024-04-22T07:20:09.103Z,191.67
2024-04-22T07:21:10.565Z,192.00
2024-04-22T07:22:12.076Z,191.33
2024-04-22T07:23:14.038Z,188.83
2024-04-22T07:24:15.887Z,182.33
2024-04-22T07:25:18.069Z,178.33
2024-04-22T07:26:19.546Z,177.17
2024-04-22T07:27:26.017Z,178.00
2024-04-22T07:28:29.401Z,178.83
2024-04-22T07:29:31.165Z,178.67
2024-04-22T07:30:42.563Z,179.33
2024-04-22T07:31:46.412Z,178.50
2024-04-22T07:32:48.870Z,166.33
2024-04-22T07:34:10.274Z,154.83
2024-04-22T07:35:15.318Z,148.17
2024-04-22T07:36:35.902Z,148.33
2024-04-22T07:37:43.240Z,145.67
2024-04-22T07:38:47.228Z,146.17
2024-04-22T07:39:53.682Z,148.67
2024-04-22T07:40:55.739Z,151.00
2024-04-22T07:41:57.404Z,152.50
2024-04-22T07:42:59.079Z,152.33
2024-04-22T07:44:01.735Z,153.33
2024-04-22T07:45:13.890Z,156.17
2024-04-22T07:46:16.201Z,158.17
2024-04-22T07:47:18.745Z,154.00
2024-04-22T07:48:20.724Z,145.00
2024-04-22T07:49:22.297Z,133.83
2024-04-22T07:50:23.979Z,128.33
2024-04-22T07:51:25.486Z,132.33
2024-04-22T07:52:27.255Z,133.50
2024-04-22T07:53:29.029Z,134.83
2024-04-22T07:54:30.737Z,130.83
2024-04-22T07:55:34.312Z,124.83
2024-04-22T07:56:36.059Z,121.33
2024-04-22T07:57:41.662Z,120.50
2024-04-22T07:58:44.311Z,118.83
2024-04-22T07:59:46.025Z,117.00
2024-04-22T08:00:47.588Z,117.17
2024-04-22T08:01:49.867Z,118.17
2024-04-22T08:02:51.620Z,120.33
2024-04-22T08:03:53.356Z,121.00
2024-04-22T08:04:55.198Z,121.00
2024-04-22T08:06:03.934Z,121.83
2024-04-22T08:07:10.621Z,121.50
2024-04-22T08:08:18.863Z,107.17
2024-04-22T08:09:22.566Z,86.67
2024-04-22T08:10:27.944Z,84.50
2024-04-22T08:11:29.568Z,84.83
2024-04-22T08:12:31.378Z,86.17
2024-04-22T08:13:33.258Z,81.83
2024-04-22T08:14:34.738Z,85.33
2024-04-22T08:15:36.232Z,90.67
2024-04-22T08:16:37.797Z,92.67
2024-04-22T08:17:39.350Z,93.83
2024-04-22T08:18:40.883Z,92.00
2024-04-22T08:19:42.438Z,87.00
2024-04-22T08:20:44.110Z,77.67
2024-04-22T08:21:45.562Z,72.83
2024-04-22T08:22:47.220Z,70.83
2024-04-22T08:23:48.756Z,65.67
2024-04-22T08:24:51.037Z,62.00
2024-04-22T08:25:53.121Z,59.17
2024-04-22T08:26:59.110Z,60.33
2024-04-22T08:28:01.503Z,61.83
2024-04-22T08:29:03.029Z,62.33
2024-04-22T08:30:04.921Z,63.67
2024-04-22T08:31:06.901Z,65.00
2024-04-22T08:32:20.091Z,64.83
2024-04-22T08:33:21.629Z,59.67
2024-04-22T08:34:23.338Z,53.50
2024-04-22T08:35:24.802Z,47.33
2024-04-22T08:36:26.522Z,45.33
2024-04-22T08:37:27.993Z,43.33
2024-04-22T08:38:29.676Z,42.67
2024-04-22T08:39:31.154Z,42.00
2024-04-22T08:40:32.730Z,42.33
2024-04-22T08:41:37.961Z,43.83
2024-04-22T08:42:49.170Z,45.67
2024-04-22T08:43:50.856Z,46.83
2024-04-22T08:44:52.843Z,47.67
2024-04-22T08:45:54.372Z,48.00
2024-04-22T08:46:56.051Z,48.33
2024-04-22T08:47:59.045Z,49.00
2024-04-22T08:49:00.701Z,50.17
2024-04-22T08:50:02.339Z,64.50
2024-04-22T08:51:07.246Z,85.33
2024-04-22T08:52:09.015Z,97.50
2024-04-22T08:53:11.747Z,112.33
2024-04-22T08:54:18.273Z,130.00
2024-04-22T08:55:21.829Z,145.50
2024-04-22T08:56:24.821Z,149.50
2024-04-22T08:57:26.348Z,148.67
2024-04-22T08:58:28.043Z,148.00
2024-04-22T08:59:37.970Z,149.00
2024-04-22T09:00:42.960Z,149.00
2024-04-22T09:01:44.478Z,143.00
2024-04-22T09:02:45.994Z,140.00
2024-04-22T09:03:47.564Z,141.00
2024-04-22T09:04:49.341Z,141.67
2024-04-22T09:05:51.280Z,138.33
2024-04-22T09:06:52.763Z,137.33
2024-04-22T09:07:56.213Z,136.00
2024-04-22T09:08:58.654Z,135.67
2024-04-22T09:10:21.999Z,133.00
2024-04-22T09:11:46.329Z,126.33
2024-04-22T09:12:43.277Z,122.33
2024-04-22T09:13:44.983Z,112.67
2024-04-22T09:14:46.939Z,105.67
2024-04-22T09:15:58.521Z,104.67
2024-04-22T09:17:00.234Z,105.83
2024-04-22T09:18:02.829Z,107.00
2024-04-22T09:19:06.859Z,108.00
2024-04-22T09:20:08.559Z,108.83
2024-04-22T09:21:11.270Z,109.50
2024-04-22T09:22:15.297Z,110.17
2024-04-22T09:23:18.267Z,111.00
2024-04-22T09:24:19.974Z,111.50
2024-04-22T09:25:21.618Z,112.50
2024-04-22T09:26:25.617Z,114.67
2024-04-22T09:27:28.389Z,116.33
2024-04-22T09:28:34.184Z,117.00
2024-04-22T09:29:41.164Z,117.83
2024-04-22T09:30:45.290Z,119.17
2024-04-22T09:31:51.385Z,131.83
2024-04-22T09:32:59.859Z,147.17
2024-04-22T09:34:03.092Z,162.83
2024-04-22T09:35:16.565Z,172.50
2024-04-22T09:36:24.919Z,163.33
2024-04-22T09:37:27.509Z,159.00
2024-04-22T09:38:43.693Z,161.00
2024-04-22T09:39:50.648Z,156.33
2024-04-22T09:40:52.338Z,154.17
2024-04-22T09:41:54.049Z,148.00
2024-04-22T09:42:56.974Z,141.33
2024-04-22T09:44:06.776Z,139.00
2024-04-22T09:45:17.153Z,143.67
2024-04-22T09:46:21.046Z,146.33
2024-04-22T09:48:26.589Z,125.50
2024-04-22T09:49:30.320Z,123.00
2024-04-22T09:50:38.441Z,115.00
2024-04-22T09:51:42.626Z,108.33
2024-04-22T09:52:50.344Z,98.67
2024-04-22T09:53:52.195Z,87.67
2024-04-22T09:54:54.087Z,85.83
2024-04-22T09:55:59.067Z,89.33
2024-04-22T09:57:01.871Z,89.00
2024-04-22T09:58:05.849Z,81.50
2024-04-22T09:59:08.403Z,74.00
2024-04-22T10:00:11.232Z,70.83
2024-04-22T10:01:12.953Z,73.17
2024-04-22T10:02:14.661Z,74.00
2024-04-22T10:03:16.268Z,70.17
2024-04-22T10:04:17.970Z,66.83
2024-04-22T10:05:22.567Z,67.33
2024-04-22T10:06:25.610Z,71.67
2024-04-22T10:07:27.291Z,72.00
2024-04-22T10:08:29.404Z,72.33
2024-04-22T10:09:32.873Z,72.17
2024-04-22T10:10:34.512Z,73.17
2024-04-22T10:11:39.194Z,75.67
2024-04-22T10:12:40.847Z,77.50
2024-04-22T10:13:42.537Z,78.00
2024-04-22T10:14:44.251Z,78.83
2024-04-22T10:15:45.821Z,82.50
2024-04-22T10:16:56.066Z,88.50
2024-04-22T10:18:13.151Z,93.50
2024-04-22T10:19:17.048Z,93.50
2024-04-22T10:20:19.861Z,92.67
2024-04-22T10:21:21.336Z,91.17
2024-04-22T10:22:29.846Z,89.17
2024-04-22T10:23:37.871Z,88.00
2024-04-22T10:24:40.525Z,89.00
2024-04-22T10:25:42.204Z,90.00
2024-04-22T10:26:56.168Z,91.00
2024-04-22T10:28:02.749Z,91.17
2024-04-22T10:29:04.354Z,91.50
2024-04-22T10:30:08.829Z,91.00
2024-04-22T10:31:17.192Z,90.17
2024-04-22T10:32:18.835Z,86.83
2024-04-22T10:33:52.354Z,84.50
2024-04-22T10:35:30.416Z,83.17
2024-04-22T10:36:32.801Z,88.33
2024-04-22T10:37:34.403Z,90.00
2024-04-22T10:38:35.942Z,88.33
2024-04-22T10:39:37.580Z,72.00
2024-04-22T10:40:39.360Z,58.50
2024-04-22T10:41:41.160Z,60.50
2024-04-22T10:42:42.756Z,63.50
2024-04-22T10:43:45.368Z,65.33
2024-04-22T10:44:47.111Z,67.00
2024-04-22T10:45:48.682Z,67.50
2024-04-22T10:46:50.289Z,66.33
2024-04-22T10:48:04.965Z,66.83
2024-04-22T10:49:15.361Z,68.00
2024-04-22T10:50:19.761Z,68.33
2024-04-22T10:51:21.364Z,69.50
2024-04-22T10:52:25.747Z,70.67
2024-04-22T10:53:28.846Z,70.83
2024-04-22T10:54:30.663Z,74.17
2024-04-22T10:55:32.887Z,77.00
2024-04-22T10:56:34.395Z,77.00
2024-04-22T10:57:38.248Z,76.67
2024-04-22T10:58:39.870Z,75.17
2024-04-22T10:59:41.403Z,73.17
2024-04-22T11:00:45.920Z,70.67
2024-04-22T11:01:48.297Z,67.33
2024-04-22T11:02:50.508Z,63.67
2024-04-22T11:03:52.260Z,58.67
2024-04-22T11:04:54.117Z,57.17
2024-04-22T11:05:59.969Z,53.00
2024-04-22T11:07:01.467Z,46.67
2024-04-22T11:08:04.687Z,47.00
2024-04-22T11:09:08.621Z,49.00
2024-04-22T11:10:11.388Z,51.00
2024-04-22T11:11:15.399Z,52.17
2024-04-22T11:12:22.910Z,53.67
2024-04-22T11:13:26.456Z,58.83
2024-04-22T11:14:28.972Z,60.00
2024-04-22T11:15:30.443Z,59.33
2024-04-22T11:16:32.438Z,57.17
2024-04-22T11:17:33.991Z,54.33
2024-04-22T11:18:36.441Z,50.17
2024-04-22T11:19:38.117Z,48.00
2024-04-22T11:20:41.476Z,46.33
2024-04-22T11:21:42.963Z,37.17
2024-04-22T11:22:44.793Z,29.83
2024-04-22T11:23:51.384Z,27.33
2024-04-22T11:24:52.892Z,30.33
2024-04-22T11:25:54.872Z,31.67
2024-04-22T11:26:56.630Z,30.00
2024-04-22T11:28:00.181Z,29.00
2024-04-22T11:29:03.250Z,28.83
2024-04-22T11:30:05.395Z,26.83
2024-04-22T11:31:07.114Z,25.00
2024-04-22T11:32:08.619Z,23.00
2024-04-22T11:33:11.439Z,21.83
2024-04-22T11:34:12.967Z,23.33
2024-04-22T11:35:14.538Z,24.00
2024-04-22T11:36:16.291Z,24.50
2024-04-22T11:37:17.828Z,25.17
2024-04-22T11:38:20.306Z,26.00
2024-04-22T11:39:21.887Z,26.00
2024-04-22T11:40:23.419Z,26.00
2024-04-22T11:41:24.959Z,26.00
2024-04-22T11:42:26.450Z,27.17
2024-04-22T11:43:28.063Z,28.67
2024-04-22T11:44:29.546Z,30.33
2024-04-22T11:45:30.991Z,32.00
2024-04-22T11:46:32.735Z,33.50
2024-04-22T11:47:34.424Z,34.00
2024-04-22T11:48:39.530Z,34.00
2024-04-22T11:49:42.189Z,34.00
2024-04-22T11:50:43.716Z,34.00
2024-04-22T11:51:45.192Z,34.00
2024-04-22T11:52:49.012Z,34.00
2024-04-22T11:53:50.595Z,34.00
2024-04-22T11:54:52.041Z,33.33
2024-04-22T11:55:54.919Z,33.00
2024-04-22T11:56:56.420Z,33.00
2024-04-22T11:57:57.888Z,34.00
2024-04-22T11:58:59.797Z,33.17
2024-04-22T12:00:01.466Z,33.00
2024-04-22T12:01:03.364Z,33.00
2024-04-22T12:02:04.888Z,33.00
2024-04-22T12:03:06.401Z,33.00
2024-04-22T12:04:08.061Z,33.83
2024-04-22T12:05:13.116Z,36.00
2024-04-22T12:06:14.666Z,37.83
2024-04-22T12:07:17.268Z,37.83
2024-04-22T12:08:19.157Z,36.67
2024-04-22T12:09:20.754Z,36.00
2024-04-22T12:10:22.352Z,36.17
2024-04-22T12:11:24.063Z,41.33
2024-04-22T12:12:25.574Z,54.83
2024-04-22T12:13:28.561Z,59.33
2024-04-22T12:14:30.086Z,58.00
2024-04-22T12:15:31.580Z,58.17
2024-04-22T12:16:33.185Z,60.83
2024-04-22T12:17:35.436Z,65.33
2024-04-22T12:18:36.998Z,65.50
2024-04-22T12:19:38.512Z,64.67
2024-04-22T12:20:40.116Z,64.83
2024-04-22T12:21:43.175Z,68.83
2024-04-22T12:22:44.729Z,78.00
2024-04-22T12:23:46.437Z,75.33
2024-04-22T12:24:47.912Z,71.67
2024-04-22T12:25:49.682Z,70.00
2024-04-22T12:26:51.206Z,69.33
2024-04-22T12:27:59.044Z,68.17
2024-04-22T12:29:07.055Z,67.17
2024-04-22T12:30:09.487Z,64.33
2024-04-22T12:31:11.301Z,55.67
2024-04-22T12:32:12.847Z,46.67
2024-04-22T12:33:14.514Z,43.00
2024-04-22T12:34:16.156Z,43.00
2024-04-22T12:35:17.732Z,44.17
2024-04-22T12:36:19.193Z,45.67
2024-04-22T12:37:22.255Z,46.00
2024-04-22T12:38:23.886Z,45.50
2024-04-22T12:39:25.920Z,46.00
2024-04-22T12:40:27.519Z,43.33
2024-04-22T12:41:29.102Z,32.17
2024-04-22T12:42:32.192Z,25.00
2024-04-22T12:43:34.565Z,21.00
2024-04-22T12:44:37.053Z,20.17
2024-04-22T12:45:40.446Z,22.67
2024-04-22T12:47:00.663Z,26.00
2024-04-22T12:48:20.942Z,28.67
2024-04-22T12:49:41.274Z,30.00
2024-04-22T12:50:43.120Z,30.00
2024-04-22T12:51:44.601Z,30.00
2024-04-22T12:52:46.210Z,30.00
2024-04-22T12:53:47.686Z,29.50
2024-04-22T12:54:49.149Z,29.00
2024-04-22T12:55:50.702Z,29.17
2024-04-22T12:56:52.250Z,30.00
2024-04-22T12:57:53.719Z,30.00
2024-04-22T12:58:56.975Z,30.00
2024-04-22T13:00:06.830Z,30.33
2024-04-22T13:01:09.959Z,31.33
2024-04-22T13:02:12.546Z,31.17
2024-04-22T13:03:14.128Z,30.33
2024-04-22T13:04:15.810Z,29.83
2024-04-22T13:05:17.408Z,28.17
2024-04-22T13:06:18.921Z,26.83
2024-04-22T13:07:20.383Z,25.33
2024-04-22T13:08:21.826Z,23.50
2024-04-22T13:09:23.281Z,21.50
2024-04-22T13:10:24.864Z,21.00
2024-04-22T13:11:26.385Z,21.00
2024-04-22T13:12:27.930Z,20.33
2024-04-22T13:13:29.647Z,19.67